Time;durP1;ratioP1;P1;durP2;ratioP2;P2;SDS_P1;SDS_P2;PMS_P1;PMS_P2;Temp;Humidity;BMP_temperature;BMP_pressure;BME280_temperature;BME280_humidity;BME280_pressure;Samples;Min_cycle;Max_cycle;Signal;HPM_P1;HPM_P2
2023/06/21 00:02:07;;;;;;;18.90;15.40;;;;;;;20.38;66.72;100643.80;104209;1283;99234;-79
2023/06/21 00:04:55;;;;;;;17.60;15.80;;;;;;;20.36;67.25;100638.82;104150;1283;98020;-80
2023/06/21 00:07:41;;;;;;;20.30;16.00;;;;;;;20.31;67.43;100639.34;104182;1279;98587;-80
2023/06/21 00:10:29;;;;;;;20.40;18.30;;;;;;;20.27;67.46;100637.92;104159;1280;99591;-79
2023/06/21 00:13:14;;;;;;;21.20;16.10;;;;;;;20.22;67.65;100639.37;103803;1285;101376;-79
2023/06/21 00:16:00;;;;;;;19.90;16.70;;;;;;;20.21;67.97;100641.52;103971;1284;108406;-80
2023/06/21 00:18:45;;;;;;;19.30;17.10;;;;;;;20.22;67.80;100643.77;104117;1280;98071;-80
2023/06/21 00:21:31;;;;;;;18.50;16.60;;;;;;;20.22;67.96;100640.02;104039;1280;97930;-79
2023/06/21 00:24:16;;;;;;;19.00;17.00;;;;;;;20.20;68.28;100637.38;104197;1282;99715;-80
2023/06/21 00:27:02;;;;;;;19.40;16.50;;;;;;;20.21;68.54;100636.79;104129;1280;101359;-80
2023/06/21 00:29:47;;;;;;;18.80;16.80;;;;;;;20.22;68.64;100628.81;104126;1287;99143;-79
2023/06/21 00:32:33;;;;;;;21.30;17.10;;;;;;;20.20;68.78;100623.05;104182;1283;97899;-80
2023/06/21 00:35:18;;;;;;;20.40;17.20;;;;;;;20.19;68.81;100618.19;104079;1285;97994;-79
2023/06/21 00:38:05;;;;;;;23.30;19.20;;;;;;;20.19;69.01;100615.84;104129;1283;98536;-80
2023/06/21 00:40:53;;;;;;;21.30;17.90;;;;;;;20.18;69.09;100612.13;104136;1287;102432;-79
2023/06/21 00:43:39;;;;;;;25.10;19.10;;;;;;;20.17;69.02;100618.59;104130;1285;100706;-79
2023/06/21 00:46:25;;;;;;;19.60;17.60;;;;;;;20.17;69.13;100622.38;104149;1283;98871;-79
2023/06/21 00:49:11;;;;;;;19.30;17.30;;;;;;;20.14;69.42;100624.02;103921;1289;99274;-79
2023/06/21 00:51:57;;;;;;;20.50;18.50;;;;;;;20.13;69.51;100623.69;104084;1280;98440;-79
2023/06/21 00:54:43;;;;;;;21.40;18.70;;;;;;;20.13;69.47;100622.44;105109;1280;101396;-79
2023/06/21 00:57:28;;;;;;;20.20;16.70;;;;;;;20.15;69.60;100626.77;104255;1280;100349;-79
2023/06/21 01:00:21;;;;;;;18.70;16.30;;;;;;;20.16;69.76;100623.52;104090;1283;98986;-79
2023/06/21 01:03:07;;;;;;;20.00;16.90;;;;;;;20.16;69.90;100624.65;104127;1282;101592;-79
2023/06/21 01:06:22;;;;;;;19.00;17.10;;;;;;;20.14;70.09;100627.73;104966;1283;98535;-79
2023/06/21 01:09:14;;;;;;;20.80;18.40;;;;;;;20.12;70.30;100631.27;104292;1284;102474;-79
2023/06/21 01:12:29;;;;;;;24.80;19.00;;;;;;;20.13;70.40;100632.83;104169;1283;100372;-79
2023/06/21 01:15:25;;;;;;;22.60;18.70;;;;;;;20.13;70.60;100630.76;104133;1283;98407;-79
2023/06/21 01:18:14;;;;;;;22.30;17.40;;;;;;;20.13;70.64;100631.09;104254;1280;98031;-79
2023/06/21 01:21:03;;;;;;;20.70;17.90;;;;;;;20.17;70.78;100633.04;106571;1280;95730;-81
2023/06/21 01:24:16;;;;;;;25.10;20.60;;;;;;;20.22;70.92;100636.30;104378;1282;101844;-79
2023/06/21 01:27:42;;;;;;;22.30;18.50;;;;;;;20.26;70.96;100633.62;104188;1281;99127;-80
2023/06/21 01:30:31;;;;;;;20.20;18.10;;;;;;;20.28;71.25;100631.74;104338;1280;99406;-79
2023/06/21 01:33:17;;;;;;;21.20;19.00;;;;;;;20.30;71.35;100627.08;104724;1281;98925;-79
2023/06/21 01:36:04;;;;;;;21.20;19.00;;;;;;;20.32;71.25;100626.73;104880;1284;99697;-81
2023/06/21 01:38:56;;;;;;;21.60;19.30;;;;;;;20.35;71.48;100631.63;104974;1280;101994;-81
2023/06/21 01:41:41;;;;;;;22.00;19.90;;;;;;;20.37;71.51;100639.27;104827;1283;100383;-81
2023/06/21 01:44:27;;;;;;;22.70;19.00;;;;;;;20.39;71.66;100636.35;104986;1283;98007;-81
2023/06/21 01:47:13;;;;;;;21.00;18.80;;;;;;;20.38;71.78;100640.16;104984;1285;97902;-81
2023/06/21 01:50:00;;;;;;;21.30;19.10;;;;;;;20.38;71.91;100640.05;104600;1282;98011;-81
2023/06/21 01:52:47;;;;;;;21.50;19.30;;;;;;;20.40;71.63;100643.66;104962;1285;101375;-80
2023/06/21 01:55:33;;;;;;;20.70;18.60;;;;;;;20.42;71.78;100643.63;104952;1285;99179;-80
2023/06/21 01:58:18;;;;;;;22.40;18.50;;;;;;;20.42;71.84;100640.91;104901;1284;98787;-80
2023/06/21 02:01:05;;;;;;;22.00;19.70;;;;;;;20.41;71.98;100644.23;104932;1284;96469;-80
2023/06/21 02:03:59;;;;;;;21.50;18.70;;;;;;;20.41;72.27;100649.18;104999;1279;98201;-80
2023/06/21 02:06:48;;;;;;;21.50;19.40;;;;;;;20.40;72.04;100647.14;104624;1280;101598;-80
2023/06/21 02:09:34;;;;;;;19.60;17.50;;;;;;;20.40;72.21;100644.09;104976;1280;100380;-79
2023/06/21 02:12:20;;;;;;;21.20;19.00;;;;;;;20.39;72.09;100645.34;104938;1283;98600;-80
2023/06/21 02:15:06;;;;;;;21.20;18.80;;;;;;;20.38;72.23;100646.35;104843;1283;97972;-80
2023/06/21 02:17:52;;;;;;;22.90;19.80;;;;;;;20.38;72.43;100651.53;104746;1280;97950;-80
2023/06/21 02:20:39;;;;;;;21.60;19.40;;;;;;;20.38;72.56;100652.77;104807;1287;102054;-80
2023/06/21 02:23:24;;;;;;;20.00;17.90;;;;;;;20.38;72.66;100656.15;104815;1283;100423;-79
2023/06/21 02:26:10;;;;;;;25.20;19.00;;;;;;;20.39;72.61;100658.94;104421;1279;98779;-79
2023/06/21 02:28:57;;;;;;;21.40;19.20;;;;;;;20.41;72.78;100660.12;103906;1294;98004;-79
2023/06/21 02:31:42;;;;;;;19.60;17.70;;;;;;;20.43;72.84;100655.08;103823;1283;99296;-79
2023/06/21 02:34:28;;;;;;;21.70;19.40;;;;;;;20.44;72.78;100651.89;104132;1283;101359;-79
2023/06/21 02:37:14;;;;;;;30.00;19.80;;;;;;;20.44;72.90;100651.50;104173;1280;99110;-80
2023/06/21 02:40:20;;;;;;;21.60;19.10;;;;;;;20.42;72.99;100648.42;104097;1286;97984;-80
2023/06/21 02:43:06;;;;;;;21.30;19.00;;;;;;;20.38;73.16;100647.23;104067;1284;98016;-79
2023/06/21 02:45:53;;;;;;;20.10;18.20;;;;;;;20.36;73.35;100644.92;104216;1280;98016;-80
2023/06/21 02:48:39;;;;;;;21.70;19.00;;;;;;;20.34;73.44;100646.52;104283;1280;102656;-80
2023/06/21 02:51:25;;;;;;;22.80;18.80;;;;;;;20.31;73.46;100649.14;104459;1282;100385;-79
2023/06/21 02:54:10;;;;;;;24.40;21.00;;;;;;;20.29;73.81;100648.94;103776;1279;97978;-79
2023/06/21 02:56:56;;;;;;;21.60;19.20;;;;;;;20.28;73.85;100649.14;104257;1283;98067;-79
2023/06/21 02:59:42;;;;;;;20.00;18.00;;;;;;;20.29;73.83;100650.95;104425;1280;97890;-80
2023/06/21 03:02:33;;;;;;;23.90;19.20;;;;;;;20.31;73.95;100653.60;104277;1280;101535;-80
2023/06/21 03:05:18;;;;;;;;;;;;;;;20.32;74.18;100653.39;104788;1280;99737;-80
2023/06/21 03:08:04;;;;;;;20.90;18.80;;;;;;;20.31;74.25;100656.89;104916;1282;97998;-81
2023/06/21 03:10:49;;;;;;;21.20;19.10;;;;;;;20.29;74.44;100653.45;104783;1282;97955;-81
2023/06/21 03:13:37;;;;;;;22.20;19.40;;;;;;;20.30;74.58;100653.53;104856;1286;97810;-80
2023/06/21 03:16:23;;;;;;;21.90;19.60;;;;;;;20.30;74.74;100648.90;104856;1280;103161;-80
2023/06/21 03:19:09;;;;;;;21.70;19.40;;;;;;;20.31;74.85;100649.23;104938;1280;99893;-80
2023/06/21 03:21:55;;;;;;;22.40;20.20;;;;;;;20.32;75.06;100639.25;104268;1280;98033;-80
2023/06/21 03:24:40;;;;;;;22.20;19.70;;;;;;;20.33;75.34;100637.90;104928;1279;97934;-80
2023/06/21 03:27:27;;;;;;;22.10;19.80;;;;;;;20.36;75.28;100640.23;104884;1280;98446;-80
2023/06/21 03:30:13;;;;;;;22.60;19.60;;;;;;;20.37;75.48;100645.27;104768;1280;102626;-79
2023/06/21 03:32:58;;;;;;;21.60;19.10;;;;;;;20.39;75.65;100647.02;104849;1283;99121;-80
2023/06/21 03:35:44;;;;;;;24.40;20.10;;;;;;;20.42;75.55;100651.15;104805;1280;98611;-81
2023/06/21 03:38:30;;;;;;;21.90;19.50;;;;;;;20.46;75.86;100649.37;104858;1280;97801;-80
2023/06/21 03:41:15;;;;;;;22.30;20.10;;;;;;;20.52;75.74;100655.48;104899;1282;98018;-80
2023/06/21 03:44:01;;;;;;;23.00;20.50;;;;;;;20.57;75.48;100654.09;104839;1285;101501;-81
2023/06/21 03:46:47;;;;;;;22.80;20.30;;;;;;;20.61;75.36;100657.25;104963;1284;99150;-80
2023/06/21 03:49:33;;;;;;;21.50;19.40;;;;;;;20.65;75.07;100662.20;104815;1283;99038;-80
2023/06/21 03:52:19;;;;;;;21.50;19.30;;;;;;;20.68;74.85;100664.92;104773;1283;98101;-80
2023/06/21 03:55:07;;;;;;;23.40;19.70;;;;;;;20.71;74.86;100666.98;104755;1285;99410;-81
2023/06/21 03:57:53;;;;;;;23.50;20.40;;;;;;;20.75;75.04;100669.38;104890;1280;102751;-80
2023/06/21 04:00:39;;;;;;;23.50;21.20;;;;;;;20.79;75.15;100668.66;104896;1279;100347;-80
2023/06/21 04:03:26;;;;;;;22.00;20.00;;;;;;;20.82;75.34;100668.48;104453;1280;98040;-80
2023/06/21 04:06:12;;;;;;;21.90;19.50;;;;;;;20.86;75.38;100669.29;104747;1280;98027;-79
2023/06/21 04:08:57;;;;;;;22.60;20.00;;;;;;;20.89;75.64;100667.70;104780;1286;97787;-80
2023/06/21 04:11:45;;;;;;;23.20;20.80;;;;;;;20.92;76.07;100668.45;104632;1286;101395;-80
2023/06/21 04:14:30;;;;;;;23.10;20.50;;;;;;;20.96;76.30;100668.72;104574;1280;100077;-80
2023/06/21 04:17:18;;;;;;;24.90;21.60;;;;;;;20.99;76.06;100670.29;104486;1286;99033;-80
2023/06/21 04:20:10;;;;;;;25.40;21.50;;;;;;;21.03;76.07;100667.69;104377;1279;98001;-80
2023/06/21 04:22:57;;;;;;;24.20;21.70;;;;;;;21.08;75.89;100670.70;103802;1280;99865;-80
2023/06/21 04:25:44;;;;;;;23.00;20.20;;;;;;;21.14;75.66;100671.33;104210;1280;102786;-79
2023/06/21 04:28:29;;;;;;;25.20;21.10;;;;;;;21.21;75.64;100670.59;104248;1280;99198;-81
2023/06/21 04:31:15;;;;;;;21.70;19.50;;;;;;;21.27;75.52;100666.79;104204;1281;99020;-81
2023/06/21 04:34:00;;;;;;;22.50;20.30;;;;;;;21.34;75.67;100662.63;104476;1283;97919;-81
2023/06/21 04:36:47;;;;;;;22.00;19.80;;;;;;;21.41;75.59;100662.70;104469;1283;97379;-80
2023/06/21 04:39:34;;;;;;;22.90;20.00;;;;;;;21.49;75.51;100662.89;104334;1279;101466;-79
2023/06/21 04:42:20;;;;;;;21.10;18.90;;;;;;;21.57;75.41;100659.05;104055;1280;99476;-80
2023/06/21 04:45:07;;;;;;;23.20;19.00;;;;;;;21.64;75.18;100656.55;103804;1282;99095;-79
2023/06/21 04:47:53;;;;;;;21.70;19.40;;;;;;;21.75;75.08;100653.94;104156;1280;98024;-80
2023/06/21 04:50:38;;;;;;;22.50;20.20;;;;;;;21.89;75.39;100654.91;104230;1282;99267;-80
2023/06/21 04:53:29;;;;;;;24.60;17.80;;;;;;;22.03;75.31;100657.50;104285;1282;102066;-80
2023/06/21 04:56:14;;;;;;;19.80;17.70;;;;;;;22.15;75.04;100657.76;104294;1280;99839;-80
2023/06/21 04:59:00;;;;;;;20.80;17.80;;;;;;;22.29;75.05;100657.75;104306;1279;98432;-80
2023/06/21 05:01:46;;;;;;;19.90;17.90;;;;;;;22.42;74.77;100658.65;104307;1280;97928;-80
2023/06/21 05:04:31;;;;;;;20.20;18.10;;;;;;;22.54;74.27;100657.15;104640;1279;98440;-81
2023/06/21 05:07:16;;;;;;;18.90;16.10;;;;;;;22.67;73.84;100659.23;104639;1283;102423;-79
2023/06/21 05:10:02;;;;;;;23.60;17.20;;;;;;;22.81;73.48;100661.01;104110;1280;99294;-79
2023/06/21 05:12:47;;;;;;;18.40;16.60;;;;;;;22.97;73.16;100659.11;104178;1282;98386;-81
2023/06/21 05:15:33;;;;;;;18.60;16.80;;;;;;;23.16;72.86;100661.31;104135;1283;97962;-81
2023/06/21 05:18:19;;;;;;;17.80;16.00;;;;;;;23.34;72.77;100662.98;104187;1279;99731;-80
2023/06/21 05:21:05;;;;;;;16.80;15.20;;;;;;;23.53;72.26;100660.47;104099;1280;101430;-80
2023/06/21 05:23:50;;;;;;;17.50;14.00;;;;;;;23.70;71.21;100662.69;104167;1279;99718;-80
2023/06/21 05:26:35;;;;;;;16.30;14.20;;;;;;;23.80;70.60;100659.75;104199;1283;99074;-80
2023/06/21 05:29:23;;;;;;;15.60;14.10;;;;;;;23.85;70.20;100661.45;104217;1282;98021;-81
2023/06/21 05:32:09;;;;;;;15.70;14.30;;;;;;;23.92;69.92;100658.77;104211;1280;96641;-80
2023/06/21 05:34:55;;;;;;;16.30;14.50;;;;;;;24.03;69.48;100659.73;104274;1280;102645;-81
2023/06/21 05:37:40;;;;;;;14.90;12.00;;;;;;;24.11;69.29;100660.23;104713;1280;100546;-81
2023/06/21 05:40:26;;;;;;;14.90;13.50;;;;;;;24.17;68.86;100658.98;104343;1280;98781;-80
2023/06/21 05:43:11;;;;;;;17.30;12.90;;;;;;;24.23;68.63;100660.67;104367;1280;98014;-79
2023/06/21 05:45:57;;;;;;;15.90;14.50;;;;;;;24.31;68.49;100660.16;104393;1280;98462;-80
2023/06/21 05:48:43;;;;;;;17.50;14.00;;;;;;;24.39;67.91;100662.02;104311;1280;101503;-80
2023/06/21 05:51:28;;;;;;;15.20;13.70;;;;;;;24.48;67.68;100666.01;104265;1283;100431;-80
2023/06/21 05:54:14;;;;;;;15.10;13.60;;;;;;;24.56;67.48;100670.91;104272;1280;98112;-80
2023/06/21 05:56:59;;;;;;;16.20;14.30;;;;;;;24.62;67.45;100673.98;104771;1282;98495;-81
2023/06/21 05:59:45;;;;;;;15.10;13.30;;;;;;;24.68;67.51;100675.98;104671;1283;99669;-80
2023/06/21 06:02:30;;;;;;;14.50;12.70;;;;;;;24.72;67.11;100673.83;104964;1282;101456;-80
2023/06/21 06:05:16;;;;;;;14.00;12.60;;;;;;;24.74;66.85;100671.76;104361;1280;99169;-80
2023/06/21 06:08:01;;;;;;;14.60;13.20;;;;;;;24.77;66.44;100669.64;104414;1280;99331;-80
2023/06/21 06:10:46;;;;;;;14.80;13.30;;;;;;;24.81;66.34;100667.77;104397;1280;99263;-80
2023/06/21 06:13:32;;;;;;;21.30;14.30;;;;;;;24.87;66.59;100660.83;104298;1280;98523;-80
2023/06/21 06:16:17;;;;;;;14.10;12.50;;;;;;;24.97;66.74;100658.55;104221;1280;102622;-79
2023/06/21 06:19:03;;;;;;;14.90;13.40;;;;;;;25.15;67.27;100658.54;104327;1279;99134;-80
2023/06/21 06:21:48;;;;;;;13.80;12.40;;;;;;;25.32;66.57;100657.52;104468;1283;97940;-79
2023/06/21 06:24:34;;;;;;;14.20;12.80;;;;;;;25.44;65.89;100663.45;104419;1282;98008;-79
2023/06/21 06:27:19;;;;;;;14.30;12.80;;;;;;;25.54;65.57;100666.85;104572;1280;98103;-81
2023/06/21 06:30:05;;;;;;;14.10;12.80;;;;;;;25.67;65.72;100670.27;104706;1282;102635;-79
2023/06/21 06:32:51;;;;;;;14.30;13.00;;;;;;;25.77;65.09;100673.23;104483;1283;100401;-79
2023/06/21 06:35:36;;;;;;;16.30;12.90;;;;;;;25.84;64.35;100675.38;104566;1282;99281;-80
2023/06/21 06:38:22;;;;;;;15.20;13.20;;;;;;;25.89;63.87;100674.41;104520;1280;97972;-80
2023/06/21 06:41:08;;;;;;;14.30;13.00;;;;;;;25.92;63.22;100675.15;104579;1279;98019;-79
2023/06/21 06:43:53;;;;;;;14.60;13.00;;;;;;;25.94;62.86;100675.30;104534;1282;101403;-81
2023/06/21 06:46:39;;;;;;;16.70;13.40;;;;;;;25.95;62.90;100669.31;104478;1282;99234;-81
2023/06/21 06:49:24;;;;;;;14.50;13.00;;;;;;;25.96;62.95;100670.23;104951;1278;97930;-80
2023/06/21 06:52:12;;;;;;;13.60;12.30;;;;;;;25.97;62.36;100670.56;104777;1280;98074;-80
2023/06/21 06:54:57;;;;;;;14.70;12.70;;;;;;;26.00;62.52;100670.53;104920;1280;97426;-80
2023/06/21 06:57:42;;;;;;;14.10;12.40;;;;;;;26.05;62.88;100667.92;104905;1282;101637;-79
2023/06/21 07:00:28;;;;;;;13.20;11.90;;;;;;;26.09;63.20;100663.78;104992;1280;100828;-80
2023/06/21 07:03:14;;;;;;;15.40;12.20;;;;;;;26.13;62.77;100664.82;104956;1280;97949;-79
2023/06/21 07:05:59;;;;;;;12.40;11.30;;;;;;;26.14;62.51;100667.61;104305;1285;98042;-79
2023/06/21 07:08:46;;;;;;;13.10;11.80;;;;;;;26.15;62.39;100669.90;104066;1282;99731;-80
2023/06/21 07:11:32;;;;;;;13.70;12.10;;;;;;;26.15;62.76;100673.14;103963;1284;101390;-79
2023/06/21 07:14:18;;;;;;;13.60;12.20;;;;;;;26.15;63.46;100666.98;104230;1282;100413;-79
2023/06/21 07:17:03;;;;;;;13.60;12.20;;;;;;;26.17;63.43;100665.98;104164;1280;99079;-79
2023/06/21 07:19:49;;;;;;;13.00;11.80;;;;;;;26.20;63.09;100668.87;104374;1282;97937;-79
2023/06/21 07:22:35;;;;;;;13.30;11.90;;;;;;;26.24;63.48;100673.60;104248;1280;99164;-80
2023/06/21 07:25:20;;;;;;;13.60;12.30;;;;;;;26.28;63.81;100675.70;104230;1280;101369;-79
2023/06/21 07:28:06;;;;;;;13.60;12.40;;;;;;;26.33;64.45;100674.63;104261;1280;100502;-79
2023/06/21 07:30:51;;;;;;;13.30;12.00;;;;;;;26.36;64.02;100671.56;104169;1279;98036;-79
2023/06/21 07:33:37;;;;;;;14.20;12.00;;;;;;;26.39;63.39;100663.02;104215;1282;98797;-79
2023/06/21 07:36:25;;;;;;;12.70;11.40;;;;;;;26.40;62.10;100661.33;104219;1280;99622;-80
2023/06/21 07:39:10;;;;;;;11.60;10.20;;;;;;;26.44;61.98;100658.52;104594;1279;101949;-79
2023/06/21 07:41:57;;;;;;;12.50;11.20;;;;;;;26.46;60.96;100660.15;104172;1280;100227;-80
2023/06/21 07:44:42;;;;;;;12.10;10.20;;;;;;;26.50;60.54;100659.84;104084;1280;98863;-79
2023/06/21 07:47:29;;;;;;;11.60;10.20;;;;;;;26.53;60.00;100654.48;104484;1280;98328;-80
2023/06/21 07:50:14;;;;;;;11.70;9.90;;;;;;;26.57;59.60;100652.46;104988;1277;98430;-80
2023/06/21 07:53:00;;;;;;;11.80;10.60;;;;;;;26.61;59.33;100655.20;104931;1279;101421;-80
2023/06/21 07:55:45;;;;;;;11.50;10.10;;;;;;;26.67;59.03;100654.00;105018;1280;99677;-80
2023/06/21 07:58:31;;;;;;;11.90;10.70;;;;;;;26.73;58.94;100649.67;104749;1280;98983;-80
2023/06/21 08:01:16;;;;;;;11.20;10.10;;;;;;;26.83;58.98;100644.51;104950;1282;98098;-80
2023/06/21 08:04:03;;;;;;;12.00;10.80;;;;;;;26.98;58.76;100641.13;104771;1280;98545;-79
2023/06/21 08:06:48;;;;;;;11.80;10.60;;;;;;;27.17;58.61;100634.56;104950;1279;102337;-79
2023/06/21 08:09:33;;;;;;;12.30;11.10;;;;;;;27.35;58.25;100634.50;104064;1280;99175;-80
2023/06/21 08:12:19;;;;;;;13.10;11.10;;;;;;;27.47;58.55;100630.77;104256;1281;99081;-79
2023/06/21 08:15:05;;;;;;;12.50;11.30;;;;;;;27.58;58.85;100632.56;104266;1283;96599;-79
2023/06/21 08:17:51;;;;;;;12.20;11.10;;;;;;;27.74;59.05;100631.05;104255;1282;97834;-79
2023/06/21 08:20:39;;;;;;;12.70;11.40;;;;;;;27.92;58.83;100635.85;104316;1279;102644;-80
2023/06/21 08:23:24;;;;;;;14.10;12.00;;;;;;;28.10;58.55;100635.21;104853;1277;109721;-80
2023/06/21 08:26:10;;;;;;;14.30;12.40;;;;;;;28.21;57.30;100634.75;104822;1279;98649;-80
2023/06/21 08:28:56;;;;;;;14.70;11.60;;;;;;;28.33;57.12;100635.48;104243;1279;97982;-80
2023/06/21 08:31:41;;;;;;;12.90;10.80;;;;;;;28.45;56.37;100635.86;104437;1281;97925;-79
2023/06/21 08:34:27;;;;;;;12.30;11.20;;;;;;;28.55;56.16;100637.27;104439;1279;101363;-80
2023/06/21 08:37:12;;;;;;;16.80;10.70;;;;;;;28.61;55.13;100637.85;104157;1282;99167;-79
2023/06/21 08:39:58;;;;;;;12.00;10.50;;;;;;;28.64;55.11;100638.95;104413;1280;98504;-79
2023/06/21 08:42:44;;;;;;;11.20;10.10;;;;;;;28.65;53.95;100641.30;104384;1281;98013;-80
2023/06/21 08:45:30;;;;;;;13.60;9.90;;;;;;;28.62;53.25;100643.02;104363;1280;98337;-80
2023/06/21 08:48:17;;;;;;;10.80;9.80;;;;;;;28.57;52.60;100643.04;104399;1277;103134;-79
2023/06/21 08:51:04;;;;;;;10.10;9.20;;;;;;;28.52;52.13;100645.32;104285;1282;99467;-79
2023/06/21 08:53:56;;;;;;;10.80;9.80;;;;;;;28.47;51.85;100647.16;104313;1277;98378;-79
2023/06/21 08:56:45;;;;;;;10.50;9.60;;;;;;;28.42;52.21;100645.45;104330;1283;97963;-79
2023/06/21 08:59:39;;;;;;;14.50;10.70;;;;;;;28.37;52.75;100645.77;104296;1277;98538;-79
2023/06/21 09:02:58;;;;;;;11.50;10.50;;;;;;;28.31;52.73;100646.10;103981;1283;102733;-82
2023/06/21 09:06:00;;;;;;;12.00;10.50;;;;;;;28.22;52.39;100647.30;104456;1280;99094;-82
2023/06/21 09:08:48;;;;;;;11.60;10.50;;;;;;;28.14;52.26;100651.41;104426;1283;99084;-83
2023/06/21 09:11:36;;;;;;;11.80;10.70;;;;;;;28.08;52.43;100652.05;104362;1279;98011;-85
2023/06/21 09:14:22;;;;;;;11.90;10.10;;;;;;;27.99;52.84;100651.16;104097;1282;99712;-83
2023/06/21 09:17:08;;;;;;;11.70;10.60;;;;;;;27.91;53.13;100654.46;104310;1280;101409;-84
2023/06/21 09:19:53;;;;;;;11.30;10.30;;;;;;;27.85;53.33;100657.48;104159;1283;100386;-84
2023/06/21 09:22:42;;;;;;;11.90;10.80;;;;;;;27.81;53.77;100652.92;104504;1283;99432;-81
2023/06/21 09:25:27;;;;;;;11.60;10.50;;;;;;;27.75;54.32;100652.45;104559;1280;98029;-80
2023/06/21 09:28:14;;;;;;;11.50;10.40;;;;;;;27.71;54.81;100654.62;104124;1277;99756;-83
2023/06/21 09:31:00;;;;;;;11.30;10.30;;;;;;;27.68;55.03;100655.43;104715;1280;102398;-80
2023/06/21 09:33:47;;;;;;;12.40;10.90;;;;;;;27.65;55.29;100656.25;104557;1279;99130;-82
2023/06/21 09:36:33;;;;;;;11.80;10.00;;;;;;;27.62;54.73;100654.75;104330;1280;97985;-79
2023/06/21 09:39:18;;;;;;;12.00;11.00;;;;;;;27.63;54.62;100652.04;104533;1277;98030;-80
2023/06/21 09:42:04;;;;;;;12.20;11.10;;;;;;;27.65;54.91;100650.23;104562;1279;99725;-81
2023/06/21 09:44:50;;;;;;;12.50;11.30;;;;;;;27.70;55.10;100645.05;104325;1280;102260;-79
2023/06/21 09:47:36;;;;;;;11.60;10.60;;;;;;;27.75;54.89;100649.83;104378;1283;100293;-81
2023/06/21 09:50:21;;;;;;;12.30;10.50;;;;;;;27.78;54.54;100652.08;104305;1278;98049;-80
2023/06/21 09:53:10;;;;;;;10.20;9.30;;;;;;;27.83;54.26;100650.14;103842;1279;98031;-80
2023/06/21 09:55:57;;;;;;;11.20;10.00;;;;;;;27.88;54.10;100650.98;104419;1280;98331;-82
2023/06/21 09:58:43;;;;;;;10.10;9.20;;;;;;;27.95;53.82;100655.89;104322;1286;101399;-82
2023/06/21 10:01:40;;;;;;;11.10;10.20;;;;;;;28.01;54.25;100655.42;104436;1281;99184;-78
2023/06/21 10:04:25;;;;;;;11.50;10.50;;;;;;;28.06;54.38;100655.73;103770;1279;98040;-84
2023/06/21 10:07:14;;;;;;;11.40;10.30;;;;;;;28.08;53.61;100659.00;104073;1280;98049;-86
2023/06/21 10:10:07;;;;;;;13.10;10.10;;;;;;;28.07;53.20;100662.87;104353;1278;98139;-86
2023/06/21 10:12:53;;;;;;;13.20;9.80;;;;;;;28.05;53.08;100665.60;103970;1283;101390;-86
2023/06/21 10:15:39;;;;;;;11.90;10.70;;;;;;;28.01;53.19;100668.86;104376;1282;99150;-86
2023/06/21 10:18:25;;;;;;;11.50;10.50;;;;;;;27.96;53.47;100672.85;103976;1280;99031;-84
2023/06/21 10:21:13;;;;;;;11.90;10.80;;;;;;;27.90;53.56;100670.67;104241;1278;98030;-83
2023/06/21 10:23:59;;;;;;;12.30;10.20;;;;;;;27.85;53.47;100666.96;104385;1280;98474;-84
2023/06/21 10:26:46;;;;;;;11.10;10.20;;;;;;;27.79;53.59;100667.05;104912;1280;102477;-83
2023/06/21 10:29:33;;;;;;;11.10;10.00;;;;;;;27.73;53.93;100666.27;104267;1282;109921;-85
2023/06/21 10:32:21;;;;;;;11.60;10.50;;;;;;;27.68;53.77;100670.41;104195;1280;97947;-85
2023/06/21 10:35:13;;;;;;;11.60;10.40;;;;;;;27.66;53.89;100668.41;104460;1282;97992;-82
2023/06/21 10:38:08;;;;;;;10.80;9.50;;;;;;;27.62;53.99;100666.75;104531;1282;98615;-85
2023/06/21 10:40:54;;;;;;;11.20;10.10;;;;;;;27.59;54.14;100665.87;104582;1285;101396;-85
2023/06/21 10:43:41;;;;;;;10.90;9.80;;;;;;;27.57;54.28;100665.05;104179;1280;99124;-85
2023/06/21 10:46:27;;;;;;;11.50;10.50;;;;;;;27.57;54.43;100662.69;104092;1285;98096;-87
2023/06/21 10:49:14;;;;;;;17.30;10.80;;;;;;;27.58;54.40;100661.48;104264;1285;98026;-83
2023/06/21 10:52:01;;;;;;;15.60;11.70;;;;;;;27.59;54.86;100665.96;104609;1279;98020;-83
2023/06/21 10:54:48;;;;;;;12.50;11.40;;;;;;;27.60;54.65;100661.45;104307;1280;102339;-86
2023/06/21 10:57:34;;;;;;;12.80;11.50;;;;;;;27.61;54.57;100662.63;104314;1280;99221;-83
2023/06/21 11:00:22;;;;;;;15.40;10.90;;;;;;;27.63;54.68;100659.42;104437;1282;98004;-83
2023/06/21 11:03:12;;;;;;;12.40;11.10;;;;;;;27.66;54.68;100658.05;104483;1285;97991;-81
2023/06/21 11:06:20;;;;;;;13.80;11.50;;;;;;;27.70;54.26;100656.39;104787;1280;98004;-82
2023/06/21 11:09:08;;;;;;;13.60;10.70;;;;;;;27.72;54.25;100651.95;104529;1280;101365;-83
2023/06/21 11:11:53;;;;;;;12.40;10.40;;;;;;;27.73;53.86;100650.34;104301;1282;99790;-83
2023/06/21 11:14:39;;;;;;;13.30;10.80;;;;;;;27.74;53.84;100651.33;104217;1280;97976;-84
2023/06/21 11:17:25;;;;;;;16.30;11.00;;;;;;;27.73;53.94;100647.86;104103;1280;98080;-85
2023/06/21 11:20:24;;;;;;;17.60;10.90;;;;;;;27.69;54.24;100651.83;104308;1280;98589;-85
2023/06/21 11:23:10;;;;;;;13.40;11.50;;;;;;;27.66;54.47;100655.73;104443;1280;101436;-82
2023/06/21 11:26:01;;;;;;;15.00;11.10;;;;;;;27.63;54.56;100658.03;104513;1279;99810;-83
2023/06/21 11:28:48;;;;;;;13.20;10.80;;;;;;;27.59;54.44;100655.47;104422;1283;98008;-86
2023/06/21 11:31:39;;;;;;;15.40;11.00;;;;;;;27.54;54.51;100651.80;104369;1280;98727;-81
2023/06/21 11:34:29;;;;;;;14.50;11.40;;;;;;;27.51;55.02;100650.61;104677;1279;98110;-81
2023/06/21 11:37:47;;;;;;;12.90;11.40;;;;;;;27.48;54.44;100649.79;104298;1282;101431;-81
2023/06/21 11:40:33;;;;;;;13.40;11.30;;;;;;;27.40;54.39;100644.50;104281;1280;99069;-80
2023/06/21 11:43:19;;;;;;;18.20;12.10;;;;;;;27.35;54.29;100643.73;104752;1280;98008;-81
2023/06/21 11:46:04;;;;;;;13.00;11.20;;;;;;;27.32;54.44;100640.95;104620;1280;98008;-81
2023/06/21 11:48:58;;;;;;;12.50;10.80;;;;;;;27.32;54.71;100641.01;104631;1280;98094;-82
2023/06/21 11:51:51;;;;;;;14.10;10.90;;;;;;;27.33;54.38;100640.61;104790;1279;101413;-81
2023/06/21 11:54:37;;;;;;;11.80;10.50;;;;;;;27.34;54.00;100641.55;104557;1282;99165;-84
2023/06/21 11:57:22;;;;;;;12.60;11.20;;;;;;;27.34;53.82;100642.85;104117;1285;99039;-84
2023/06/21 12:00:13;;;;;;;13.00;11.70;;;;;;;27.32;53.95;100643.55;104055;1286;98005;-79
2023/06/21 12:02:58;;;;;;;15.30;11.00;;;;;;;27.27;53.91;100644.27;103838;1282;98555;-83
2023/06/21 12:05:53;;;;;;;11.80;10.60;;;;;;;27.22;53.96;100643.07;104443;1280;102580;-81
2023/06/21 12:08:39;;;;;;;12.50;11.30;;;;;;;27.16;53.87;100645.95;104574;1280;100015;-80
2023/06/21 12:11:26;;;;;;;11.60;10.40;;;;;;;27.12;53.28;100640.61;104285;1280;98001;-81
2023/06/21 12:14:11;;;;;;;12.00;10.50;;;;;;;27.09;53.10;100638.28;104549;1280;97982;-80
2023/06/21 12:16:58;;;;;;;12.10;10.90;;;;;;;27.08;53.19;100635.29;104796;1280;98042;-82
2023/06/21 12:19:44;;;;;;;10.80;9.90;;;;;;;27.10;53.18;100634.98;104558;1282;102655;-79
2023/06/21 12:22:29;;;;;;;12.40;10.70;;;;;;;27.13;53.05;100636.04;103995;1283;99238;-82
2023/06/21 12:25:15;;;;;;;12.40;11.20;;;;;;;27.18;53.33;100634.11;104104;1282;99545;-80
2023/06/21 12:28:02;;;;;;;14.00;10.90;;;;;;;27.23;53.41;100632.02;104371;1283;98042;-84
2023/06/21 12:30:53;;;;;;;14.80;10.40;;;;;;;27.27;53.54;100632.06;104331;1282;98424;-84